createdAt,value
2023-02-11T00:01:46.231Z,26.00
2023-02-11T00:06:00.232Z,25.05
2023-02-11T00:10:03.654Z,25.73
2023-02-11T00:14:08.823Z,25.40
2023-02-11T00:18:11.619Z,25.17
2023-02-11T00:22:15.740Z,25.10
2023-02-11T00:26:20.579Z,23.80
2023-02-11T00:30:23.489Z,23.65
2023-02-11T00:34:27.380Z,23.63
2023-02-11T00:38:31.690Z,23.30
2023-02-11T00:42:35.726Z,23.05
2023-02-11T00:46:38.643Z,22.17
2023-02-11T00:50:42.086Z,23.98
2023-02-11T00:54:46.381Z,23.35
2023-02-11T00:58:50.119Z,22.77
2023-02-11T01:02:53.570Z,21.95
2023-02-11T01:06:56.359Z,23.50
2023-02-11T01:11:06.088Z,24.38
2023-02-11T01:15:10.864Z,23.50
2023-02-11T01:19:13.591Z,22.83
2023-02-11T01:23:16.329Z,23.33
2023-02-11T01:27:21.404Z,22.17
2023-02-11T01:31:24.218Z,21.88
2023-02-11T01:35:28.318Z,22.80
2023-02-11T01:39:34.814Z,22.60
2023-02-11T01:43:41.200Z,22.45
2023-02-11T01:47:44.040Z,22.75
2023-02-11T01:51:52.369Z,22.73
2023-02-11T01:56:14.171Z,23.90
2023-02-11T02:00:24.245Z,23.98
2023-02-11T02:04:31.519Z,22.63
2023-02-11T02:08:38.787Z,23.88
2023-02-11T02:12:41.606Z,23.17
2023-02-11T02:16:46.124Z,25.02
2023-02-11T02:21:27.557Z,23.73
2023-02-11T02:25:47.193Z,25.55
2023-02-11T02:30:17.616Z,25.83
2023-02-11T02:34:27.832Z,25.30
2023-02-11T02:38:35.328Z,25.25
2023-02-11T02:42:41.150Z,24.63
2023-02-11T02:46:43.998Z,25.45
2023-02-11T02:50:48.418Z,24.83
2023-02-11T02:55:16.195Z,25.88
2023-02-11T02:59:38.951Z,25.73
2023-02-11T03:03:49.523Z,24.85
2023-02-11T03:07:59.509Z,25.80
2023-02-11T03:12:04.028Z,25.75
2023-02-11T03:16:12.084Z,26.95
2023-02-11T03:20:18.556Z,26.33
2023-02-11T03:24:29.476Z,25.15
2023-02-11T03:28:41.403Z,25.88
2023-02-11T03:32:52.108Z,26.15
2023-02-11T03:36:57.907Z,26.77
2023-02-11T03:41:05.595Z,25.73
2023-02-11T03:45:12.129Z,24.90
2023-02-11T03:49:18.805Z,26.73
2023-02-11T03:53:22.615Z,25.67
2023-02-11T03:57:26.717Z,25.25
2023-02-11T04:01:29.735Z,24.98
2023-02-11T04:05:33.178Z,26.38
2023-02-11T04:09:36.818Z,27.25
2023-02-11T04:13:40.878Z,26.10
2023-02-11T04:17:43.860Z,25.67
2023-02-11T04:21:47.740Z,25.92
2023-02-11T04:25:50.949Z,26.67
2023-02-11T04:29:55.296Z,26.40
2023-02-11T04:33:58.395Z,26.35
2023-02-11T04:38:01.119Z,26.20
2023-02-11T04:42:03.956Z,25.83
2023-02-11T04:46:08.177Z,27.63
2023-02-11T04:50:11.226Z,28.20
2023-02-11T04:54:14.004Z,26.23
2023-02-11T04:58:16.823Z,26.92
2023-02-11T05:02:21.056Z,29.52
2023-02-11T05:06:23.901Z,27.98
2023-02-11T05:10:26.663Z,27.83
2023-02-11T05:14:29.395Z,28.20
2023-02-11T05:18:33.500Z,27.88
2023-02-11T05:22:36.255Z,28.23
2023-02-11T05:26:38.968Z,28.23
2023-02-11T05:30:41.855Z,26.92
2023-02-11T05:34:46.163Z,28.60
2023-02-11T05:38:48.960Z,28.27
2023-02-11T05:42:51.695Z,28.77
2023-02-11T05:46:54.411Z,28.05
2023-02-11T05:50:58.692Z,28.30
2023-02-11T05:55:01.551Z,28.23
2023-02-11T05:59:04.316Z,28.30
2023-02-11T06:03:08.003Z,28.23
2023-02-11T06:07:12.176Z,28.15
2023-02-11T06:11:15.987Z,28.70
2023-02-11T06:15:18.951Z,28.65
2023-02-11T06:19:21.744Z,28.38
2023-02-11T06:23:27.945Z,27.42
2023-02-11T06:27:31.931Z,28.30
2023-02-11T06:31:34.800Z,26.83
2023-02-11T06:35:39.419Z,26.90
2023-02-11T06:39:45.214Z,27.73
2023-02-11T06:43:48.396Z,27.75
2023-02-11T06:47:52.854Z,28.02
2023-02-11T06:51:55.632Z,28.38
2023-02-11T06:56:04.244Z,28.23
2023-02-11T07:00:08.039Z,26.80
2023-02-11T07:04:11.232Z,28.30
2023-02-11T07:08:14.015Z,28.25
2023-02-11T07:12:18.065Z,28.65
2023-02-11T07:16:21.174Z,29.55
2023-02-11T07:20:24.060Z,29.63
2023-02-11T07:24:26.801Z,29.73
2023-02-11T07:28:30.924Z,30.00
2023-02-11T07:32:33.663Z,29.67
2023-02-11T07:36:36.392Z,29.92
2023-02-11T07:40:39.130Z,30.75
2023-02-11T07:44:43.197Z,29.13
2023-02-11T07:48:46.143Z,30.15
2023-02-11T07:52:48.896Z,29.40
2023-02-11T07:56:51.695Z,30.65
2023-02-11T08:00:56.182Z,30.30
2023-02-11T08:04:58.992Z,31.73
2023-02-11T08:09:06.518Z,29.05
2023-02-11T08:13:09.312Z,29.33
2023-02-11T08:17:13.453Z,32.42
2023-02-11T08:21:16.413Z,30.88
2023-02-11T08:25:19.167Z,30.95
2023-02-11T08:29:22.969Z,30.70
2023-02-11T08:33:27.270Z,30.77
2023-02-11T08:37:32.942Z,31.63
2023-02-11T08:41:36.517Z,31.83
2023-02-11T08:45:39.378Z,32.75
2023-02-11T08:49:43.641Z,31.92
2023-02-11T08:53:47.048Z,32.67
2023-02-11T08:57:49.848Z,31.58
2023-02-11T09:01:52.661Z,30.85
2023-02-11T09:05:57.047Z,32.45
2023-02-11T09:09:59.836Z,31.65
2023-02-11T09:14:03.963Z,34.33
2023-02-11T09:18:07.461Z,34.92
2023-02-11T09:22:11.622Z,32.25
2023-02-11T09:26:17.148Z,33.28
2023-02-11T09:30:20.115Z,34.67
2023-02-11T09:34:22.886Z,34.75
2023-02-11T09:38:26.969Z,33.47
2023-02-11T09:42:41.158Z,34.67
2023-02-11T09:46:46.680Z,33.90
2023-02-11T09:50:52.591Z,32.90
2023-02-11T09:54:58.483Z,34.60
2023-02-11T09:59:01.240Z,34.83
2023-02-11T10:03:36.236Z,33.50
2023-02-11T10:07:47.015Z,34.33
2023-02-11T10:12:01.314Z,35.75
2023-02-11T10:16:17.967Z,34.13
2023-02-11T10:20:31.330Z,35.20
2023-02-11T10:24:35.432Z,34.15
2023-02-11T10:28:41.217Z,35.95
2023-02-11T10:32:49.473Z,34.20
2023-02-11T10:36:52.870Z,33.63
2023-02-11T10:40:55.672Z,33.55
2023-02-11T10:45:03.304Z,33.40
2023-02-11T10:49:06.151Z,34.85
2023-02-11T10:53:16.975Z,35.50
2023-02-11T10:57:20.717Z,35.97
2023-02-11T11:01:38.315Z,34.78
2023-02-11T11:05:48.104Z,35.03
2023-02-11T11:09:55.146Z,35.70
2023-02-11T11:13:59.824Z,35.70
2023-02-11T11:18:23.656Z,35.67
2023-02-11T11:22:26.749Z,36.42
2023-02-11T11:26:40.589Z,37.47
2023-02-11T11:30:44.325Z,36.95
2023-02-11T11:34:54.134Z,36.75
2023-02-11T11:39:00.036Z,36.30
2023-02-11T11:43:20.234Z,37.25
2023-02-11T11:47:33.453Z,39.25
2023-02-11T11:51:40.369Z,38.65
2023-02-11T11:55:46.794Z,40.63
2023-02-11T11:59:54.272Z,39.35
2023-02-11T12:04:26.061Z,37.65
2023-02-11T12:08:42.369Z,38.22
2023-02-11T12:12:51.699Z,39.03
2023-02-11T12:17:03.537Z,38.63
2023-02-11T12:21:33.756Z,38.30
2023-02-11T12:25:47.624Z,38.17
2023-02-11T12:30:03.938Z,40.40
2023-02-11T12:34:25.580Z,41.40
2023-02-11T12:38:43.580Z,40.13
2023-02-11T12:43:16.205Z,39.88
2023-02-11T12:47:28.181Z,39.55
2023-02-11T12:51:52.747Z,38.85
2023-02-11T12:56:19.862Z,39.53
2023-02-11T13:00:47.487Z,38.92
2023-02-11T13:05:20.958Z,38.88
2023-02-11T13:14:48.478Z,40.80
2023-02-11T13:19:47.168Z,40.50
2023-02-11T13:24:25.168Z,41.55
2023-02-11T13:28:42.538Z,39.10
2023-02-11T13:33:32.913Z,41.33
2023-02-11T13:37:41.085Z,40.08
2023-02-11T13:42:10.461Z,41.45
2023-02-11T13:47:02.825Z,42.10
2023-02-11T13:56:28.559Z,40.42
2023-02-11T14:01:03.294Z,43.05
2023-02-11T14:05:56.652Z,41.10
2023-02-11T14:21:08.484Z,43.42
2023-02-11T14:25:30.451Z,41.63
2023-02-11T14:30:01.612Z,43.65
2023-02-11T14:34:22.470Z,43.70
2023-02-11T14:39:09.712Z,43.05
2023-02-11T14:43:19.865Z,44.13
2023-02-11T14:47:37.923Z,42.75
2023-02-11T14:51:45.098Z,43.17
2023-02-11T14:55:51.093Z,42.15
2023-02-11T14:59:59.420Z,44.25
2023-02-11T15:04:27.848Z,41.65
2023-02-11T15:08:34.467Z,41.70
2023-02-11T15:12:46.441Z,42.90
2023-02-11T15:16:54.283Z,42.95
2023-02-11T15:20:57.471Z,42.28
2023-02-11T15:25:11.114Z,43.33
2023-02-11T15:29:17.486Z,44.22
2023-02-11T15:33:25.280Z,43.13
2023-02-11T15:37:30.272Z,42.38
2023-02-11T15:41:39.392Z,44.47
2023-02-11T15:45:45.141Z,42.05
2023-02-11T15:49:49.010Z,42.40
2023-02-11T15:53:56.752Z,43.67
2023-02-11T15:58:02.854Z,46.30
2023-02-11T16:06:39.913Z,42.75
2023-02-11T16:15:58.186Z,42.10
2023-02-11T16:20:01.445Z,43.15
2023-02-11T16:24:06.497Z,42.35
2023-02-11T16:28:16.306Z,41.65
2023-02-11T16:32:23.677Z,42.58
2023-02-11T16:36:45.052Z,43.35
2023-02-11T16:40:50.834Z,43.63
2023-02-11T16:44:57.645Z,41.60
2023-02-11T16:49:10.137Z,41.92
2023-02-11T16:53:14.520Z,39.03
2023-02-11T16:57:19.878Z,41.50
2023-02-11T17:01:22.876Z,41.42
2023-02-11T17:05:27.206Z,42.00
2023-02-11T17:09:31.217Z,42.35
2023-02-11T17:13:34.913Z,40.22
2023-02-11T17:17:37.891Z,41.00
2023-02-11T17:21:43.591Z,41.92
2023-02-11T17:25:47.461Z,40.00
2023-02-11T17:29:50.248Z,39.20
2023-02-11T17:33:53.092Z,40.28
2023-02-11T17:37:58.658Z,38.28
2023-02-11T17:42:07.291Z,36.55
2023-02-11T17:46:11.027Z,38.30
2023-02-11T17:50:14.697Z,38.38
2023-02-11T17:54:20.631Z,37.45
2023-02-11T17:58:26.720Z,38.30
2023-02-11T18:02:29.883Z,37.17
2023-02-11T18:06:33.874Z,37.92
2023-02-11T18:10:38.207Z,36.58
2023-02-11T18:14:42.603Z,37.65
2023-02-11T18:18:45.676Z,38.30
2023-02-11T18:22:48.497Z,36.05
2023-02-11T18:26:54.924Z,39.30
2023-02-11T18:30:59.106Z,36.65
2023-02-11T18:35:02.057Z,36.88
2023-02-11T18:39:06.020Z,38.40
2023-02-11T18:43:15.333Z,37.25
2023-02-11T18:47:18.613Z,38.40
2023-02-11T18:51:21.572Z,38.97
2023-02-11T18:55:41.685Z,37.13
2023-02-11T18:59:52.696Z,35.53
2023-02-11T19:03:57.785Z,35.30
2023-02-11T19:08:01.552Z,35.65
2023-02-11T19:12:04.690Z,34.45
2023-02-11T19:16:30.794Z,36.40
2023-02-11T19:20:35.611Z,35.92
2023-02-11T19:24:39.768Z,35.78
2023-02-11T19:28:42.670Z,34.47
2023-02-11T19:33:22.882Z,35.95
2023-02-11T19:37:25.695Z,35.42
2023-02-11T19:41:28.928Z,37.08
2023-02-11T19:45:31.861Z,35.90
2023-02-11T19:49:35.997Z,36.40
2023-02-11T19:53:38.904Z,35.33
2023-02-11T19:57:41.919Z,36.17
2023-02-11T20:01:47.536Z,37.53
2023-02-11T20:05:52.588Z,38.85
2023-02-11T20:09:55.616Z,37.83
2023-02-11T20:13:59.726Z,37.65
2023-02-11T20:18:02.516Z,37.38
2023-02-11T20:22:06.791Z,39.00
2023-02-11T20:26:11.468Z,38.40
2023-02-11T20:30:14.788Z,37.55
2023-02-11T20:34:18.094Z,38.25
2023-02-11T20:38:22.524Z,38.83
2023-02-11T20:42:25.370Z,38.63
2023-02-11T20:46:31.241Z,37.78
2023-02-11T20:50:34.942Z,39.20
2023-02-11T20:54:39.145Z,39.13
2023-02-11T20:58:42.045Z,38.88
2023-02-11T21:02:44.902Z,39.67
2023-02-11T21:06:49.788Z,39.10
2023-02-11T21:10:53.946Z,41.10
2023-02-11T21:14:57.881Z,39.60
2023-02-11T21:19:02.742Z,39.90
2023-02-11T21:23:05.551Z,41.63
2023-02-11T21:27:09.710Z,40.90
2023-02-11T21:31:20.624Z,42.28
2023-02-11T21:35:23.508Z,42.78
2023-02-11T21:39:26.344Z,41.80
2023-02-11T21:43:30.532Z,42.58
2023-02-11T21:47:33.323Z,42.22
2023-02-11T21:51:36.209Z,42.90
2023-02-11T21:55:40.077Z,44.50
2023-02-11T21:59:44.633Z,42.75
2023-02-11T22:03:48.758Z,44.53
2023-02-11T22:07:51.901Z,46.00
2023-02-11T22:11:54.880Z,44.80
2023-02-11T22:16:03.973Z,45.55
2023-02-11T22:20:08.131Z,46.03
2023-02-11T22:24:11.088Z,45.40
2023-02-11T22:28:14.076Z,46.00
2023-02-11T22:32:18.362Z,47.80
2023-02-11T22:36:26.425Z,48.63
2023-02-11T22:40:29.259Z,48.55
2023-02-11T22:44:32.043Z,49.63
2023-02-11T22:48:36.749Z,49.78
2023-02-11T22:52:39.558Z,49.92
2023-02-11T22:56:42.670Z,50.13
2023-02-11T23:00:45.687Z,49.55
2023-02-11T23:04:50.084Z,50.80
2023-02-11T23:08:53.016Z,50.28
2023-02-11T23:12:55.839Z,51.45
2023-02-11T23:16:58.735Z,49.33
2023-02-11T23:21:06.703Z,52.17
2023-02-11T23:25:09.736Z,52.03
2023-02-11T23:29:13.193Z,51.38
2023-02-11T23:33:15.989Z,51.67
2023-02-11T23:37:20.312Z,50.13
2023-02-11T23:41:24.613Z,52.13
2023-02-11T23:45:27.564Z,50.58
2023-02-11T23:49:30.354Z,48.17
2023-02-11T23:53:34.478Z,48.47
2023-02-11T23:57:37.525Z,49.13
